Time;durP1;ratioP1;P1;durP2;ratioP2;P2;SDS_P1;SDS_P2;PMS_P1;PMS_P2;Temp;Humidity;BMP_temperature;BMP_pressure;BME280_temperature;BME280_humidity;BME280_pressure;Samples;Min_cycle;Max_cycle;Signal;HPM_P1;HPM_P2
2022/08/03 00:00:06;;;;;;;10.60;4.40;;;;;;;;;;5034493;28;20055;-76
2022/08/03 00:02:38;;;;;;;;;;;;;;;;;;5052293;28;20435;-76
2022/08/03 00:05:07;;;;;;;10.02;4.18;;;;;;;;;;5052235;28;19931;-76
2022/08/03 00:07:33;;;;;;;10.90;3.75;;;;;;;;;;5051611;28;20476;-76
2022/08/03 00:09:59;;;;;;;12.40;4.45;;;;;;;;;;5051090;28;20377;-79
2022/08/03 00:12:25;;;;;;;7.95;4.15;;;;;;;;;;5048189;28;20047;-76
2022/08/03 00:14:51;;;;;;;8.75;3.92;;;;;;;;;;5039138;28;20369;-77
2022/08/03 00:17:17;;;;;;;13.63;4.47;;;;;;;;;;5032828;28;20037;-76
2022/08/03 00:19:43;;;;;;;9.32;3.60;;;;;;;;;;5032523;28;20041;-77
2022/08/03 00:22:09;;;;;;;9.07;3.90;;;;;;;;;;5032418;28;20032;-76
2022/08/03 00:24:35;;;;;;;9.52;3.90;;;;;;;;;;5032323;28;20116;-77
2022/08/03 00:27:01;;;;;;;18.15;4.50;;;;;;;;;;5032556;28;20029;-77
2022/08/03 00:29:27;;;;;;;9.20;4.00;;;;;;;;;;5032345;28;20037;-77
2022/08/03 00:31:53;;;;;;;9.00;3.70;;;;;;;;;;5032222;28;20041;-76
2022/08/03 00:34:19;;;;;;;6.53;3.60;;;;;;;;;;5032094;28;20055;-76
2022/08/03 00:36:45;;;;;;;7.40;3.50;;;;;;;;;;5014542;28;20041;-76
2022/08/03 00:39:11;;;;;;;11.63;4.20;;;;;;;;;;5032173;28;20400;-74
2022/08/03 00:41:37;;;;;;;8.35;3.40;;;;;;;;;;5032152;28;20044;-75
2022/08/03 00:44:03;;;;;;;9.18;4.10;;;;;;;;;;5032139;28;20485;-77
2022/08/03 00:46:29;;;;;;;12.52;3.85;;;;;;;;;;5034486;28;20333;-77
2022/08/03 00:48:55;;;;;;;6.32;3.63;;;;;;;;;;5045427;28;20040;-76
2022/08/03 00:51:21;;;;;;;7.78;3.40;;;;;;;;;;5051691;28;20045;-76
2022/08/03 00:53:48;;;;;;;12.07;3.97;;;;;;;;;;5051717;28;20033;-76
2022/08/03 00:56:15;;;;;;;9.00;3.60;;;;;;;;;;5052104;28;20033;-75
2022/08/03 00:58:44;;;;;;;14.02;4.15;;;;;;;;;;5051795;28;20040;-77
2022/08/03 01:01:11;;;;;;;12.38;3.83;;;;;;;;;;5052004;28;20029;-76
2022/08/03 01:03:37;;;;;;;14.98;4.40;;;;;;;;;;5051525;28;20072;-76
2022/08/03 01:06:12;;;;;;;13.57;4.70;;;;;;;;;;5051674;28;20472;-77
2022/08/03 01:08:53;;;;;;;15.13;4.38;;;;;;;;;;5051458;28;20036;-76
2022/08/03 01:11:36;;;;;;;8.25;3.88;;;;;;;;;;5051608;28;20086;-76
2022/08/03 01:14:16;;;;;;;16.33;4.57;;;;;;;;;;5051775;28;20483;-76
2022/08/03 01:16:58;;;;;;;7.38;3.60;;;;;;;;;;5012009;28;20395;-76
2022/08/03 01:19:39;;;;;;;9.57;4.00;;;;;;;;;;5051435;28;20048;-76
2022/08/03 01:22:48;;;;;;;7.50;3.83;;;;;;;;;;5051768;28;20514;-78
2022/08/03 01:25:48;;;;;;;14.57;3.90;;;;;;;;;;5051633;28;20037;-75
2022/08/03 01:28:33;;;;;;;7.68;3.30;;;;;;;;;;5036203;28;20025;-77
2022/08/03 01:31:05;;;;;;;6.78;3.50;;;;;;;;;;5035812;28;20095;-75
2022/08/03 01:33:36;;;;;;;11.57;3.90;;;;;;;;;;5034615;28;20042;-79
2022/08/03 01:36:10;;;;;;;6.68;3.33;;;;;;;;;;5034253;28;20476;-76
2022/08/03 01:38:42;;;;;;;8.85;3.22;;;;;;;;;;5034107;28;20041;-76
2022/08/03 01:41:11;;;;;;;6.90;3.42;;;;;;;;;;5034184;28;20060;-77
2022/08/03 01:43:40;;;;;;;10.27;3.10;;;;;;;;;;5034240;28;20468;-77
2022/08/03 01:46:08;;;;;;;7.47;3.70;;;;;;;;;;5034010;28;20060;-76
2022/08/03 01:48:37;;;;;;;7.43;3.58;;;;;;;;;;5033750;28;20041;-76
2022/08/03 01:51:05;;;;;;;9.90;3.75;;;;;;;;;;5033712;28;20100;-77
2022/08/03 01:53:32;;;;;;;10.68;3.35;;;;;;;;;;5033881;28;20108;-76
2022/08/03 01:55:59;;;;;;;8.80;3.45;;;;;;;;;;5034278;28;20424;-77
2022/08/03 01:58:27;;;;;;;5.45;3.63;;;;;;;;;;5033902;28;20100;-76
2022/08/03 02:00:58;;;;;;;4.45;3.40;;;;;;;;;;5033763;28;20029;-76
2022/08/03 02:03:24;;;;;;;5.82;3.47;;;;;;;;;;5033429;28;20041;-76
2022/08/03 02:05:52;;;;;;;6.75;3.17;;;;;;;;;;5033966;28;20381;-71
2022/08/03 02:08:18;;;;;;;5.38;3.40;;;;;;;;;;5033757;28;20030;-77
2022/08/03 02:10:46;;;;;;;7.88;3.65;;;;;;;;;;5033587;28;20116;-77
2022/08/03 02:13:14;;;;;;;10.57;3.80;;;;;;;;;;5033273;28;20030;-76
2022/08/03 02:15:41;;;;;;;9.45;3.67;;;;;;;;;;5038885;28;20037;-77
2022/08/03 02:18:09;;;;;;;6.00;3.60;;;;;;;;;;5038426;28;20042;-74
2022/08/03 02:20:37;;;;;;;7.68;3.55;;;;;;;;;;5033420;28;20034;-76
2022/08/03 02:23:05;;;;;;;8.80;3.92;;;;;;;;;;5033503;28;20040;-76
2022/08/03 02:25:33;;;;;;;11.45;4.18;;;;;;;;;;5033208;28;20033;-76
2022/08/03 02:28:10;;;;;;;7.22;3.78;;;;;;;;;;5033258;28;20060;-76
2022/08/03 02:30:39;;;;;;;13.10;4.20;;;;;;;;;;5033226;28;20454;-76
2022/08/03 02:33:20;;;;;;;12.13;4.03;;;;;;;;;;4980906;28;1510384;-75
2022/08/03 02:35:47;;;;;;;10.30;4.05;;;;;;;;;;5033956;28;20274;-76
2022/08/03 02:38:15;;;;;;;7.13;3.95;;;;;;;;;;5034041;28;20045;-76
2022/08/03 02:40:43;;;;;;;11.27;3.65;;;;;;;;;;5034390;28;20444;-76
2022/08/03 02:43:14;;;;;;;6.82;3.53;;;;;;;;;;5016487;28;20034;-76
2022/08/03 02:45:44;;;;;;;7.28;3.72;;;;;;;;;;5034338;28;20476;-77
2022/08/03 02:48:11;;;;;;;7.00;3.67;;;;;;;;;;5034184;28;20083;-76
2022/08/03 02:50:38;;;;;;;9.77;3.75;;;;;;;;;;5034213;28;20042;-73
2022/08/03 02:53:05;;;;;;;9.75;3.97;;;;;;;;;;5034042;28;20026;-78
2022/08/03 02:55:34;;;;;;;7.28;3.97;;;;;;;;;;5033981;28;20064;-75
2022/08/03 02:58:02;;;;;;;8.35;3.80;;;;;;;;;;5035755;28;20103;-75
2022/08/03 03:00:30;;;;;;;10.35;4.43;;;;;;;;;;5052674;28;20025;-75
2022/08/03 03:02:58;;;;;;;11.38;4.15;;;;;;;;;;5052627;28;20029;-78
2022/08/03 03:05:25;;;;;;;11.90;4.22;;;;;;;;;;5054530;28;20029;-75
2022/08/03 03:07:51;;;;;;;6.78;3.83;;;;;;;;;;5054770;28;20029;-77
2022/08/03 03:10:21;;;;;;;10.82;4.10;;;;;;;;;;5052678;28;20503;-75
2022/08/03 03:12:50;;;;;;;10.20;4.03;;;;;;;;;;5054895;28;20090;-76
2022/08/03 03:15:17;;;;;;;11.48;4.10;;;;;;;;;;5038385;28;20029;-76
2022/08/03 03:17:44;;;;;;;10.65;4.05;;;;;;;;;;5034579;28;20033;-76
2022/08/03 03:20:11;;;;;;;8.13;3.55;;;;;;;;;;5034762;28;20041;-76
2022/08/03 03:22:38;;;;;;;9.93;3.88;;;;;;;;;;5034664;28;20038;-77
2022/08/03 03:25:06;;;;;;;11.40;4.18;;;;;;;;;;5034699;28;20080;-76
2022/08/03 03:27:32;;;;;;;9.32;3.95;;;;;;;;;;5034657;28;20468;-75
2022/08/03 03:29:59;;;;;;;14.65;4.53;;;;;;;;;;5034534;28;20445;-76
2022/08/03 03:32:31;;;;;;;9.70;3.90;;;;;;;;;;5034238;28;20045;-77
2022/08/03 03:34:58;;;;;;;15.05;4.70;;;;;;;;;;5034156;28;20029;-77
2022/08/03 03:37:25;;;;;;;12.32;4.72;;;;;;;;;;5034169;28;20496;-76
2022/08/03 03:39:53;;;;;;;8.10;4.20;;;;;;;;;;5034223;28;20072;-76
2022/08/03 03:42:19;;;;;;;10.98;4.50;;;;;;;;;;5034056;28;20420;-76
2022/08/03 03:44:45;;;;;;;15.45;4.00;;;;;;;;;;5034014;28;20076;-76
2022/08/03 03:47:12;;;;;;;15.27;4.80;;;;;;;;;;5033833;28;20061;-76
2022/08/03 03:49:39;;;;;;;7.20;4.53;;;;;;;;;;5032847;28;20041;-76
2022/08/03 03:52:05;;;;;;;14.52;5.00;;;;;;;;;;5033766;28;20041;-77
2022/08/03 03:54:41;;;;;;;11.63;4.82;;;;;;;;;;5033859;28;20037;-77
2022/08/03 03:57:09;;;;;;;9.20;4.13;;;;;;;;;;5033796;28;20037;-75
2022/08/03 03:59:39;;;;;;;14.00;4.43;;;;;;;;;;5045866;28;20047;-76
2022/08/03 04:02:07;;;;;;;10.43;3.97;;;;;;;;;;5036009;28;20033;-77
2022/08/03 04:12:59;;;;;;;9.82;3.95;;;;;;;;;;5033655;28;20037;-76
2022/08/03 04:15:27;;;;;;;8.98;4.00;;;;;;;;;;5033641;28;20072;-76
2022/08/03 04:17:57;;;;;;;7.90;3.97;;;;;;;;;;5035747;28;20033;-76
2022/08/03 04:20:29;;;;;;;13.80;4.32;;;;;;;;;;5044308;28;20037;-76
2022/08/03 04:22:58;;;;;;;13.40;4.85;;;;;;;;;;5053231;28;20037;-77
2022/08/03 04:25:29;;;;;;;11.35;4.28;;;;;;;;;;5048189;28;20072;-76
2022/08/03 04:27:58;;;;;;;14.63;4.60;;;;;;;;;;5032970;28;20132;-76
2022/08/03 04:30:27;;;;;;;12.05;4.68;;;;;;;;;;5033425;28;20392;-77
2022/08/03 04:32:57;;;;;;;13.75;4.90;;;;;;;;;;5033071;28;20052;-77
2022/08/03 04:35:26;;;;;;;10.60;4.50;;;;;;;;;;5032907;28;20155;-77
2022/08/03 04:37:54;;;;;;;21.52;5.03;;;;;;;;;;5032967;28;20520;-76
2022/08/03 04:40:26;;;;;;;11.30;4.60;;;;;;;;;;5033107;28;20040;-78
2022/08/03 04:42:54;;;;;;;35.83;6.93;;;;;;;;;;5043148;28;20028;-76
2022/08/03 04:45:21;;;;;;;18.50;5.40;;;;;;;;;;5050250;28;20436;-77
2022/08/03 04:47:47;;;;;;;13.20;4.88;;;;;;;;;;5049794;28;20032;-77
2022/08/03 04:50:14;;;;;;;11.40;4.75;;;;;;;;;;5051492;28;20457;-77
2022/08/03 04:52:43;;;;;;;13.55;4.25;;;;;;;;;;5034371;28;20029;-76
2022/08/03 04:55:09;;;;;;;8.55;4.00;;;;;;;;;;5052286;28;20033;-77
2022/08/03 04:57:35;;;;;;;11.40;4.15;;;;;;;;;;5052396;28;20037;-79
2022/08/03 05:00:01;;;;;;;12.50;4.65;;;;;;;;;;5050384;28;20056;-76
2022/08/03 05:02:27;;;;;;;12.05;4.20;;;;;;;;;;5041510;28;20136;-76
2022/08/03 05:04:53;;;;;;;10.70;4.15;;;;;;;;;;5036755;28;20108;-76
2022/08/03 05:07:19;;;;;;;19.27;5.68;;;;;;;;;;5040211;28;20111;-79
2022/08/03 05:09:45;;;;;;;22.35;5.00;;;;;;;;;;5052192;28;20526;-79
2022/08/03 05:12:11;;;;;;;19.15;5.00;;;;;;;;;;5051997;28;20029;-79
2022/08/03 05:14:38;;;;;;;21.65;4.78;;;;;;;;;;5052006;28;20059;-78
2022/08/03 05:17:04;;;;;;;15.55;4.68;;;;;;;;;;5051592;28;20041;-79
2022/08/03 05:19:31;;;;;;;17.77;4.05;;;;;;;;;;5050722;28;20036;-79
2022/08/03 05:21:57;;;;;;;12.05;4.72;;;;;;;;;;5052717;28;20229;-74
2022/08/03 05:24:23;;;;;;;14.25;4.50;;;;;;;;;;5052274;28;20445;-74
2022/08/03 05:26:49;;;;;;;14.23;3.95;;;;;;;;;;5051259;28;20486;-75
2022/08/03 05:29:15;;;;;;;15.52;4.57;;;;;;;;;;5050721;28;20033;-74
2022/08/03 05:31:41;;;;;;;12.85;4.18;;;;;;;;;;5051341;28;20036;-80
2022/08/03 05:34:07;;;;;;;11.20;3.83;;;;;;;;;;5052522;28;20056;-76
2022/08/03 05:36:33;;;;;;;8.77;3.85;;;;;;;;;;5052663;28;20415;-78
2022/08/03 05:38:59;;;;;;;10.25;4.25;;;;;;;;;;5052544;28;20385;-79
2022/08/03 05:41:25;;;;;;;27.30;4.80;;;;;;;;;;5052437;28;20035;-74
2022/08/03 05:43:53;;;;;;;8.93;3.65;;;;;;;;;;5052346;28;20430;-77
2022/08/03 05:46:19;;;;;;;11.10;3.97;;;;;;;;;;5052276;28;20044;-78
2022/08/03 05:48:46;;;;;;;10.60;3.78;;;;;;;;;;5041657;28;20187;-77
2022/08/03 05:51:12;;;;;;;11.75;4.00;;;;;;;;;;5051376;28;20029;-79
2022/08/03 05:53:39;;;;;;;12.55;3.47;;;;;;;;;;5052214;28;20538;-77
2022/08/03 05:56:05;;;;;;;7.72;3.20;;;;;;;;;;5051919;28;20395;-75
2022/08/03 05:58:31;;;;;;;11.80;4.05;;;;;;;;;;5051821;28;20044;-76
2022/08/03 06:00:57;;;;;;;13.13;4.18;;;;;;;;;;5051975;28;20036;-76
2022/08/03 06:03:23;;;;;;;7.32;3.85;;;;;;;;;;5051676;28;20409;-82
2022/08/03 06:05:49;;;;;;;6.00;3.30;;;;;;;;;;5052286;28;20036;-75
2022/08/03 06:08:15;;;;;;;7.82;3.22;;;;;;;;;;5051589;28;20037;-76
2022/08/03 06:10:41;;;;;;;3.55;2.88;;;;;;;;;;5051829;28;20033;-78
2022/08/03 06:13:07;;;;;;;8.98;3.75;;;;;;;;;;5054311;28;20029;-78
2022/08/03 06:15:34;;;;;;;4.30;2.95;;;;;;;;;;5056036;28;20029;-76
2022/08/03 06:18:00;;;;;;;5.95;3.00;;;;;;;;;;5054978;28;20128;-76
2022/08/03 06:20:26;;;;;;;4.97;2.78;;;;;;;;;;5054919;28;20104;-74
2022/08/03 06:22:52;;;;;;;4.32;3.20;;;;;;;;;;5055113;28;20041;-76
2022/08/03 06:25:19;;;;;;;4.47;2.95;;;;;;;;;;5055003;28;20071;-76
2022/08/03 06:27:45;;;;;;;6.80;3.40;;;;;;;;;;5054968;28;20044;-78
2022/08/03 06:30:12;;;;;;;6.45;2.90;;;;;;;;;;5054317;28;20041;-76
2022/08/03 06:32:39;;;;;;;7.13;2.88;;;;;;;;;;5054826;28;20041;-78
2022/08/03 06:35:07;;;;;;;5.38;2.80;;;;;;;;;;5054634;28;20033;-75
2022/08/03 06:37:44;;;;;;;3.85;3.10;;;;;;;;;;5055602;28;20029;-78
2022/08/03 06:40:12;;;;;;;5.90;3.58;;;;;;;;;;5054632;28;20033;-74
2022/08/03 06:42:38;;;;;;;6.78;3.28;;;;;;;;;;5053946;28;20426;-78
2022/08/03 06:45:06;;;;;;;6.43;3.45;;;;;;;;;;5054366;28;20029;-77
2022/08/03 06:47:32;;;;;;;5.75;3.33;;;;;;;;;;5054244;28;20021;-75
2022/08/03 06:49:58;;;;;;;3.88;2.70;;;;;;;;;;5054359;28;20377;-75
2022/08/03 06:52:23;;;;;;;5.93;2.80;;;;;;;;;;5054650;28;20024;-76
2022/08/03 06:54:49;;;;;;;7.60;3.25;;;;;;;;;;5053830;28;20040;-75
2022/08/03 06:57:17;;;;;;;6.05;2.60;;;;;;;;;;5053905;28;20037;-74
2022/08/03 06:59:43;;;;;;;3.40;2.22;;;;;;;;;;5054255;28;20037;-76
2022/08/03 07:02:10;;;;;;;6.80;2.85;;;;;;;;;;5054161;28;20490;-77
2022/08/03 07:04:36;;;;;;;5.25;2.50;;;;;;;;;;5036335;28;20040;-77
2022/08/03 07:07:03;;;;;;;4.60;2.45;;;;;;;;;;5053562;28;20087;-78
2022/08/03 07:09:29;;;;;;;4.07;2.47;;;;;;;;;;5054025;28;20479;-77
2022/08/03 07:11:55;;;;;;;5.22;2.58;;;;;;;;;;5053944;28;20048;-75
2022/08/03 07:14:22;;;;;;;8.15;2.38;;;;;;;;;;5054583;28;20037;-76
2022/08/03 07:16:47;;;;;;;4.53;2.85;;;;;;;;;;5054510;28;20530;-80
2022/08/03 07:19:13;;;;;;;3.78;2.53;;;;;;;;;;5054215;28;20030;-82
2022/08/03 07:21:39;;;;;;;6.60;3.70;;;;;;;;;;5054285;28;20024;-80
2022/08/03 07:24:05;;;;;;;4.60;2.70;;;;;;;;;;5054944;28;20029;-82
2022/08/03 07:26:31;;;;;;;7.78;2.65;;;;;;;;;;5054787;28;20071;-83
2022/08/03 07:28:59;;;;;;;3.65;2.30;;;;;;;;;;5035890;28;20040;-83
2022/08/03 07:31:25;;;;;;;6.38;2.60;;;;;;;;;;5037201;28;20034;-78
2022/08/03 07:33:52;;;;;;;3.55;2.30;;;;;;;;;;5041464;28;20041;-86
2022/08/03 07:36:18;;;;;;;4.78;2.53;;;;;;;;;;5035638;28;20033;-82
2022/08/03 07:38:44;;;;;;;4.15;2.33;;;;;;;;;;5034026;28;20040;-82
2022/08/03 07:41:09;;;;;;;7.43;2.67;;;;;;;;;;5034509;28;20079;-83
2022/08/03 07:43:35;;;;;;;6.80;2.30;;;;;;;;;;5035451;28;20057;-82
2022/08/03 07:46:01;;;;;;;3.42;2.20;;;;;;;;;;5042726;28;20171;-86
2022/08/03 07:48:27;;;;;;;4.05;2.60;;;;;;;;;;5034881;28;20170;-84
2022/08/03 07:50:53;;;;;;;4.22;2.40;;;;;;;;;;5033877;28;20087;-85
2022/08/03 07:53:19;;;;;;;3.72;2.00;;;;;;;;;;5036003;28;20464;-87
2022/08/03 07:55:45;;;;;;;5.28;2.30;;;;;;;;;;5035667;28;20045;-84
2022/08/03 07:58:14;;;;;;;14.38;3.75;;;;;;;;;;5051247;28;20033;-80
2022/08/03 08:00:41;;;;;;;4.80;2.10;;;;;;;;;;5054933;28;20098;-84
2022/08/03 08:03:07;;;;;;;4.82;2.30;;;;;;;;;;5053382;28;20095;-78
2022/08/03 08:05:33;;;;;;;5.07;2.50;;;;;;;;;;5053352;28;20056;-86
2022/08/03 08:08:00;;;;;;;6.55;3.13;;;;;;;;;;5053550;28;20037;-81
2022/08/03 08:10:27;;;;;;;4.93;2.20;;;;;;;;;;5053458;28;20068;-86
2022/08/03 08:12:53;;;;;;;8.00;2.55;;;;;;;;;;5053767;28;20029;-84
2022/08/03 08:15:19;;;;;;;6.05;2.22;;;;;;;;;;5039337;28;20036;-81
2022/08/03 08:17:54;;;;;;;4.85;2.30;;;;;;;;;;5033051;28;20029;-84
2022/08/03 08:20:23;;;;;;;3.72;2.40;;;;;;;;;;5033174;28;20038;-82
2022/08/03 08:22:49;;;;;;;4.97;2.20;;;;;;;;;;5047700;28;20111;-83
2022/08/03 08:25:15;;;;;;;6.50;3.00;;;;;;;;;;5052846;28;20041;-82
2022/08/03 08:27:47;;;;;;;3.47;2.38;;;;;;;;;;5052922;28;20037;-80
2022/08/03 08:30:14;;;;;;;6.43;2.25;;;;;;;;;;5053797;28;20515;-82
2022/08/03 08:32:41;;;;;;;4.43;2.08;;;;;;;;;;5052896;28;20049;-85
2022/08/03 08:35:08;;;;;;;5.22;2.40;;;;;;;;;;5052253;28;20094;-81
2022/08/03 08:37:35;;;;;;;3.55;2.28;;;;;;;;;;5035729;28;20043;-77
2022/08/03 08:40:01;;;;;;;5.43;2.30;;;;;;;;;;5053790;28;20369;-85
2022/08/03 08:42:27;;;;;;;7.65;2.67;;;;;;;;;;5054310;28;20453;-80
2022/08/03 08:44:54;;;;;;;4.70;2.25;;;;;;;;;;5040539;28;20095;-82
2022/08/03 08:47:24;;;;;;;5.93;2.50;;;;;;;;;;5040677;28;20062;-81
2022/08/03 08:49:54;;;;;;;2.85;2.03;;;;;;;;;;5053519;28;20033;-85
2022/08/03 08:52:24;;;;;;;7.20;2.30;;;;;;;;;;5053058;28;20033;-80
2022/08/03 08:54:54;;;;;;;4.05;2.40;;;;;;;;;;5053384;28;20033;-86
2022/08/03 08:57:23;;;;;;;4.65;2.35;;;;;;;;;;5052763;28;20021;-84
2022/08/03 08:59:50;;;;;;;4.13;2.30;;;;;;;;;;5052502;28;20091;-85
2022/08/03 09:02:17;;;;;;;3.35;2.40;;;;;;;;;;5053871;28;20033;-80
2022/08/03 09:04:44;;;;;;;4.97;2.40;;;;;;;;;;5053330;28;20028;-80
2022/08/03 09:07:10;;;;;;;10.05;2.70;;;;;;;;;;5053217;28;20048;-82
2022/08/03 09:09:36;;;;;;;4.07;2.30;;;;;;;;;;5053515;28;20033;-83
2022/08/03 09:12:02;;;;;;;4.40;2.30;;;;;;;;;;5053313;28;20033;-80
2022/08/03 09:14:29;;;;;;;3.67;2.20;;;;;;;;;;5052667;28;20033;-80
2022/08/03 09:17:00;;;;;;;6.03;2.30;;;;;;;;;;5052469;28;20041;-79
2022/08/03 09:19:30;;;;;;;5.78;2.40;;;;;;;;;;5052874;28;20083;-80
2022/08/03 09:22:17;;;;;;;2.90;2.50;;;;;;;;;;5053846;28;20033;-81
2022/08/03 09:25:02;;;;;;;9.73;2.92;;;;;;;;;;5034628;28;20163;-82
2022/08/03 09:27:40;;;;;;;3.70;2.30;;;;;;;;;;5034289;28;20045;-78
2022/08/03 09:30:13;;;;;;;4.47;2.47;;;;;;;;;;5052189;28;20041;-78
2022/08/03 09:32:39;;;;;;;4.63;3.13;;;;;;;;;;5052301;28;20484;-81
2022/08/03 09:35:06;;;;;;;9.27;2.75;;;;;;;;;;5053576;28;20041;-80
2022/08/03 09:37:32;;;;;;;4.13;2.60;;;;;;;;;;5053096;28;20435;-79
2022/08/03 09:39:58;;;;;;;4.05;2.53;;;;;;;;;;5052913;28;20451;-77
2022/08/03 09:42:26;;;;;;;3.08;2.28;;;;;;;;;;5052265;28;20037;-78
2022/08/03 09:44:52;;;;;;;5.03;2.10;;;;;;;;;;5055224;28;20033;-80
2022/08/03 09:47:36;;;;;;;5.07;2.50;;;;;;;;;;5055351;28;20033;-80
2022/08/03 09:50:07;;;;;;;2.47;2.13;;;;;;;;;;5056549;28;20082;-79
2022/08/03 09:52:35;;;;;;;2.90;2.30;;;;;;;;;;5056889;28;20061;-83
2022/08/03 09:55:08;;;;;;;6.03;2.40;;;;;;;;;;5056611;28;20055;-77
2022/08/03 09:57:34;;;;;;;4.28;2.47;;;;;;;;;;5057403;28;20033;-82
2022/08/03 10:00:12;;;;;;;3.72;2.10;;;;;;;;;;5058574;28;20033;-78
2022/08/03 10:02:40;;;;;;;5.05;2.40;;;;;;;;;;5056526;28;20112;-79
2022/08/03 10:05:08;;;;;;;2.95;2.13;;;;;;;;;;5056929;28;20033;-83
2022/08/03 10:07:49;;;;;;;7.43;2.33;;;;;;;;;;5056511;28;20033;-75
2022/08/03 10:10:16;;;;;;;3.08;2.35;;;;;;;;;;5056880;28;20033;-77
2022/08/03 10:12:43;;;;;;;7.00;2.38;;;;;;;;;;5057308;28;20558;-80
2022/08/03 10:15:10;;;;;;;6.03;2.00;;;;;;;;;;5055659;28;20068;-80
2022/08/03 10:17:37;;;;;;;2.83;2.08;;;;;;;;;;5056524;28;20425;-82
2022/08/03 10:20:05;;;;;;;3.70;2.30;;;;;;;;;;5055986;28;20056;-81
2022/08/03 10:22:33;;;;;;;4.07;2.40;;;;;;;;;;5056251;28;20033;-82
2022/08/03 10:25:06;;;;;;;2.88;2.00;;;;;;;;;;5056081;28;20437;-80
2022/08/03 10:27:41;;;;;;;6.20;2.00;;;;;;;;;;5053341;28;20037;-79
2022/08/03 10:30:09;;;;;;;6.10;2.20;;;;;;;;;;5056341;28;20033;-79
2022/08/03 10:32:51;;;;;;;3.88;2.33;;;;;;;;;;5056307;28;20499;-79
2022/08/03 10:35:19;;;;;;;3.25;2.05;;;;;;;;;;5054770;28;20052;-82
2022/08/03 10:37:58;;;;;;;2.55;2.20;;;;;;;;;;5055133;28;20033;-80
2022/08/03 10:40:27;;;;;;;2.47;2.00;;;;;;;;;;5055458;28;20048;-83
2022/08/03 10:42:58;;;;;;;3.20;1.98;;;;;;;;;;5054670;28;20028;-82
2022/08/03 10:45:26;;;;;;;3.95;1.98;;;;;;;;;;5053717;28;20397;-84
2022/08/03 10:47:55;;;;;;;2.50;1.90;;;;;;;;;;5054758;28;20068;-81
2022/08/03 10:50:25;;;;;;;4.75;2.00;;;;;;;;;;5054657;28;20037;-80
2022/08/03 10:53:07;;;;;;;2.53;1.75;;;;;;;;;;5054570;28;20430;-80
2022/08/03 10:58:39;;;;;;;2.60;1.80;;;;;;;;;;5038812;28;20052;-80
2022/08/03 11:01:11;;;;;;;3.78;2.20;;;;;;;;;;5034915;28;20477;-81
2022/08/03 11:03:58;;;;;;;5.13;2.05;;;;;;;;;;5035584;28;20112;-79
2022/08/03 11:06:25;;;;;;;2.45;1.50;;;;;;;;;;5033238;28;20531;-79
2022/08/03 11:09:09;;;;;;;2.42;1.80;;;;;;;;;;5054582;28;20051;-79
2022/08/03 11:11:43;;;;;;;5.68;1.90;;;;;;;;;;5055235;28;20384;-80
2022/08/03 11:14:12;;;;;;;6.07;1.90;;;;;;;;;;5054832;28;20029;-78
2022/08/03 11:16:44;;;;;;;3.80;2.10;;;;;;;;;;5054706;28;20037;-80
2022/08/03 11:19:12;;;;;;;3.75;1.98;;;;;;;;;;5051562;28;20029;-84
2022/08/03 11:21:50;;;;;;;3.47;2.00;;;;;;;;;;5054809;28;20365;-80
2022/08/03 11:24:50;;;;;;;4.32;2.20;;;;;;;;;;5054593;28;20539;-80
2022/08/03 11:27:21;;;;;;;2.50;2.00;;;;;;;;;;5036195;28;20025;-79
2022/08/03 11:30:00;;;;;;;2.20;1.80;;;;;;;;;;5054653;28;20340;-80
2022/08/03 11:32:39;;;;;;;6.60;2.00;;;;;;;;;;5054252;28;20064;-81
2022/08/03 11:35:11;;;;;;;3.55;1.90;;;;;;;;;;5055871;28;20041;-80
2022/08/03 11:38:04;;;;;;;6.30;4.93;;;;;;;;;;5055051;28;20033;-82
2022/08/03 11:40:36;;;;;;;2.90;1.67;;;;;;;;;;5054240;28;20290;-78
2022/08/03 11:43:05;;;;;;;2.08;1.73;;;;;;;;;;5019586;28;20041;-81
2022/08/03 11:45:31;;;;;;;5.35;2.25;;;;;;;;;;5053832;28;20077;-83
2022/08/03 11:48:01;;;;;;;8.27;2.13;;;;;;;;;;5054473;28;20025;-80
2022/08/03 11:50:36;;;;;;;2.72;1.80;;;;;;;;;;5053742;28;20078;-76
2022/08/03 11:53:05;;;;;;;5.40;2.00;;;;;;;;;;5053432;28;20093;-82
2022/08/03 11:55:32;;;;;;;2.90;1.67;;;;;;;;;;5053380;28;20048;-76
2022/08/03 11:57:58;;;;;;;4.60;1.90;;;;;;;;;;5052890;28;20044;-78
2022/08/03 12:00:29;;;;;;;2.10;1.60;;;;;;;;;;5053389;28;20124;-82
2022/08/03 12:03:00;;;;;;;2.95;1.70;;;;;;;;;;5053288;28;20406;-77
2022/08/03 12:05:39;;;;;;;1.88;1.60;;;;;;;;;;5053504;28;20449;-77
2022/08/03 12:08:07;;;;;;;2.13;1.52;;;;;;;;;;5053283;28;20476;-76
2022/08/03 12:10:34;;;;;;;3.20;1.73;;;;;;;;;;5051858;28;20127;-79
2022/08/03 12:13:01;;;;;;;4.85;1.90;;;;;;;;;;5053523;28;20033;-81
2022/08/03 12:15:30;;;;;;;3.00;1.65;;;;;;;;;;5052995;28;20037;-76
2022/08/03 12:17:56;;;;;;;2.97;1.60;;;;;;;;;;5053364;28;20123;-77
2022/08/03 12:20:28;;;;;;;2.83;2.00;;;;;;;;;;5053395;28;20090;-77
2022/08/03 12:22:54;;;;;;;4.07;2.00;;;;;;;;;;5052587;28;20033;-78
2022/08/03 12:25:23;;;;;;;4.38;1.60;;;;;;;;;;5054174;28;20150;-77
2022/08/03 12:27:50;;;;;;;2.35;1.70;;;;;;;;;;5052974;28;20024;-77
2022/08/03 12:30:16;;;;;;;4.03;1.98;;;;;;;;;;5053288;28;20037;-76
2022/08/03 12:32:43;;;;;;;2.63;1.83;;;;;;;;;;5052939;28;20404;-78
2022/08/03 12:35:20;;;;;;;4.53;2.00;;;;;;;;;;5053308;28;20383;-75
2022/08/03 12:37:47;;;;;;;2.75;2.10;;;;;;;;;;5052940;28;20033;-77
2022/08/03 12:40:14;;;;;;;3.75;2.00;;;;;;;;;;5053216;28;20034;-78
2022/08/03 12:42:40;;;;;;;2.33;1.65;;;;;;;;;;5052168;28;20033;-82
2022/08/03 12:45:20;;;;;;;2.10;1.60;;;;;;;;;;5051872;28;20047;-77
2022/08/03 12:47:55;;;;;;;3.25;1.58;;;;;;;;;;5053109;28;20086;-77
2022/08/03 12:50:32;;;;;;;4.18;1.90;;;;;;;;;;5052194;28;20035;-78
2022/08/03 12:53:01;;;;;;;2.03;1.58;;;;;;;;;;5052895;28;20041;-78
2022/08/03 12:55:32;;;;;;;2.13;1.67;;;;;;;;;;5052534;28;20029;-79
2022/08/03 12:58:03;;;;;;;2.45;1.70;;;;;;;;;;5052719;28;20029;-78
2022/08/03 13:00:30;;;;;;;4.80;1.70;;;;;;;;;;5052318;28;20051;-77
2022/08/03 13:03:01;;;;;;;4.00;1.80;;;;;;;;;;5051939;28;20033;-75
2022/08/03 13:05:27;;;;;;;2.42;1.60;;;;;;;;;;5051990;28;20048;-77
2022/08/03 13:07:53;;;;;;;2.45;1.58;;;;;;;;;;5052300;28;20033;-79
2022/08/03 13:10:32;;;;;;;2.72;1.90;;;;;;;;;;5052138;28;20033;-77
2022/08/03 13:12:59;;;;;;;2.10;1.60;;;;;;;;;;5052186;28;20380;-75
2022/08/03 13:15:27;;;;;;;2.78;1.60;;;;;;;;;;5051691;28;20025;-74
2022/08/03 13:17:56;;;;;;;2.42;1.70;;;;;;;;;;5052247;28;20048;-75
2022/08/03 13:20:23;;;;;;;3.13;1.70;;;;;;;;;;5052140;28;20033;-75
2022/08/03 13:22:50;;;;;;;2.33;1.45;;;;;;;;;;5055958;28;20502;-75
2022/08/03 13:25:16;;;;;;;2.17;1.63;;;;;;;;;;5055360;28;20511;-77
2022/08/03 13:27:42;;;;;;;3.92;1.90;;;;;;;;;;5050572;28;20037;-77
2022/08/03 13:30:09;;;;;;;2.67;1.60;;;;;;;;;;5046124;28;20112;-77
2022/08/03 13:32:35;;;;;;;2.88;1.80;;;;;;;;;;5035652;28;20601;-78
2022/08/03 13:35:02;;;;;;;2.55;1.55;;;;;;;;;;5035964;28;20036;-78
2022/08/03 13:37:30;;;;;;;2.83;1.50;;;;;;;;;;5035865;28;20424;-75
2022/08/03 13:39:57;;;;;;;3.45;1.50;;;;;;;;;;5045484;28;20044;-77
2022/08/03 13:42:23;;;;;;;3.25;1.73;;;;;;;;;;5055958;28;20369;-77
2022/08/03 13:44:49;;;;;;;2.53;1.80;;;;;;;;;;5055849;28;20385;-80
2022/08/03 13:47:15;;;;;;;2.15;1.77;;;;;;;;;;5055520;28;20029;-78
2022/08/03 13:49:41;;;;;;;4.53;1.80;;;;;;;;;;5055322;28;20047;-78
2022/08/03 13:52:07;;;;;;;5.47;1.63;;;;;;;;;;5055007;28;20120;-79
2022/08/03 13:54:33;;;;;;;2.38;1.73;;;;;;;;;;5050635;28;20060;-78
2022/08/03 13:56:59;;;;;;;2.50;1.63;;;;;;;;;;5035899;28;20087;-77
2022/08/03 13:59:25;;;;;;;2.50;1.60;;;;;;;;;;5035960;28;20080;-77
2022/08/03 14:01:52;;;;;;;3.08;1.90;;;;;;;;;;5035880;28;20034;-76
2022/08/03 14:04:18;;;;;;;5.72;1.90;;;;;;;;;;5018856;28;20404;-76
2022/08/03 14:06:44;;;;;;;2.72;2.10;;;;;;;;;;5055419;28;20029;-75
2022/08/03 14:09:12;;;;;;;8.25;1.85;;;;;;;;;;5054191;28;20476;-78
2022/08/03 14:11:39;;;;;;;4.90;1.95;;;;;;;;;;5055370;28;20079;-79
2022/08/03 14:14:05;;;;;;;2.50;1.90;;;;;;;;;;5055377;28;20025;-79
2022/08/03 14:16:31;;;;;;;2.35;1.73;;;;;;;;;;5055343;28;20419;-76
2022/08/03 14:18:57;;;;;;;8.18;1.88;;;;;;;;;;5054836;28;20459;-74
2022/08/03 14:21:23;;;;;;;3.72;2.05;;;;;;;;;;5055169;28;20066;-76
2022/08/03 14:23:49;;;;;;;2.35;1.63;;;;;;;;;;5055231;28;20029;-76
2022/08/03 14:26:17;;;;;;;1.95;1.60;;;;;;;;;;5055423;28;20037;-76
2022/08/03 14:28:43;;;;;;;2.33;1.60;;;;;;;;;;5055279;28;20041;-77
2022/08/03 14:31:09;;;;;;;3.50;1.85;;;;;;;;;;5054843;28;20035;-78
2022/08/03 14:33:35;;;;;;;3.90;1.80;;;;;;;;;;5054116;28;20071;-77
2022/08/03 14:36:01;;;;;;;3.65;2.03;;;;;;;;;;5055062;28;20037;-77
2022/08/03 14:38:27;;;;;;;3.25;1.70;;;;;;;;;;5054791;28;20056;-76
2022/08/03 14:40:53;;;;;;;2.40;1.95;;;;;;;;;;5054773;28;20061;-79
2022/08/03 14:43:20;;;;;;;3.78;1.77;;;;;;;;;;5054386;28;20063;-77
2022/08/03 14:45:47;;;;;;;2.00;1.75;;;;;;;;;;5055026;28;20029;-76
2022/08/03 14:48:13;;;;;;;3.30;1.80;;;;;;;;;;5055113;28;20117;-76
2022/08/03 14:50:39;;;;;;;2.47;1.63;;;;;;;;;;5054810;28;20501;-77
2022/08/03 14:53:05;;;;;;;4.88;1.88;;;;;;;;;;5049922;28;20021;-75
2022/08/03 14:55:31;;;;;;;3.55;1.85;;;;;;;;;;5047287;28;20033;-76
2022/08/03 14:57:57;;;;;;;2.63;2.00;;;;;;;;;;5042291;28;20033;-76
2022/08/03 15:00:22;;;;;;;4.93;1.90;;;;;;;;;;5034753;28;20033;-75